Terminal Aerodrome Forecast
Issued by NWS

Home | Current Version | Previous Version | Text Only | Print | Product List | Glossary On
Versions: 1 2 3 4 5 6 7 8 9 10 11 12 13 14 15 16 17 18 19 20 21 22 23 24 25 26 27 28 29 30
000
FTAK31 PANC 211741
TAFADQ
TAF
PADQ 211741Z 2118/2218 VRB04KT P6SM SKC
     FM212200 VRB04KT P6SM VCSH SCT025 OVC040
     FM220300 32012KT 5SM -SN BKN025
     FM220900 32015KT 6SM -SHRASN OVC022
     FM221200 32015G22KT P6SM VCSH BKN040=

USA.gov is the U.S. government's official web portal to all federal, state and local government web resources and services.